METAR AND TAF INFORMATION
METAR FOR LQSA
ADDS - METARS form results

(1723 UTC 23 February 2019)
Data provider http://aviationweather.gov/metar/data/
 
METAR text: LQSA 231700Z VRB02KT 9999 BKN035 M04/M11 Q1035 NOSIG
Conditions at: LQSA (SARAJEVO/BUTMIR , CS) observed 1700 UTC 23 February 2019
Temperature: -4.0°C (25°F)
Dewpoint: -11.0°C (12°F) [RH = 58%]
Pressure (altimeter): 30.56 inches Hg (1035.0 mb)
Winds: variable direction winds at 2 MPH (2 knots; 1.0 m/s)
Visibility: 6 or more miles (10+ km)
Ceiling: 3500 feet AGL
Clouds: broken clouds at 3500 feet AGL
Weather: no significant weather observed at this time

METAR text: LQSA 231630Z 34004KT 320V030 9999 BKN035 M04/M11 Q1035 NOSIG
Conditions at: LQSA (SARAJEVO/BUTMIR , CS) observed 1630 UTC 23 February 2019
Temperature: -4.0°C (25°F)
Dewpoint: -11.0°C (12°F) [RH = 58%]
Pressure (altimeter): 30.56 inches Hg (1035.0 mb)
Winds: from the NNW (340 degrees) at 5 MPH (4 knots; 2.1 m/s)
Visibility: 6 or more miles (10+ km)
Ceiling: 3500 feet AGL
Clouds: broken clouds at 3500 feet AGL
Weather: no significant weather observed at this time

Forecast for: LQSA (SARAJEVO/BUTMIR , CS)
Text: TAF LQSA 231700Z 2318/2418 VRB05KT 9999 BKN030 TX01/2414Z TNM11/2406Z
Forecast period: 1800 UTC 23 February 2019 to 1800 UTC 24 February 2019
Forecast type: FROM: standard forecast or significant change
Winds: variable direction winds at 6 MPH (5 knots; 2.6 m/s)
Visibility: 6 or more miles 10+ km)
Ceiling: 3000 feet AGL
Clouds: broken clouds at 3000 feet AGL
Weather: no significant weather forecast for this period
Text: PROB30
Forecast period: 1200 to 1500 UTC 24 February 2019
Forecast type: TEMPORARY: The following changes expected for less than half the time period
Winds: from the NE (40 degrees) at 14 MPH (12 knots; 6.2 m/s)
Visibility: missing
Ceiling: unknown
Clouds: missing
Weather: no significant weather forecast for this period

 AIRPORT MAP

 RUNWAY INFORMATION
Runway 12 Runway length 8666 ft Runway width 150 ft
Runway elevation 1643 ft Runway displaced threshold 333 ft Runway heading 117
Runway 30 Runway length 8666 ft Runway width 150 ft
Runway elevation 1690 ft Runway displaced threshold 1666 ft Runway heading 297

 AIRPORT FREQUENCIES
Type APP Name APP Frequency 136.45 MHZ
Type GCA Name GCA Frequency 119.4 MHZ
Type GND Name GND Frequency 121.9 MHZ
Type TWR Name TWR Frequency 118.25 MHZ

 AIRPORT NEAR NAVIGATION AIDS
Type NDB Name Sarajevo Frequency 436 KHZ
Type VOR-DME Name Sarajevo Frequency 116700 KHZ
Type NDB Name Kobiljaca Frequency 358 KHZ
Type VORTAC Name Sarajevo Frequency 108850 KHZ



Copyright © 2011 - 2018 BirgenAir Virtual Airlines. All rights reserved. Developed by Goktug Unver